CheckWX is a tool to help pilots better visualize weather data.  It is not intended as a substitute for an official pre-flight weather briefing.

02:50:19 UTC

EGOP METAR
Pembrey Sands Airport
Pembrey Sands, United Kingdom
Current

60 mins ago

EGOP 220150Z AUTO 07004KT 9999 // FEW170/// 03/02 Q1021
Observed
May-22 @ 01:50 UTC
Wind
  • 070° at 4 KTS
Visibility
10,000+ meters
Flight Rules
VFR
Cloud Levels
  • Few at 17,000' AGL
Temperature
C / 37°F
Dewpoint
C / 36°F
Humidity
93%
Altimeter
30.15" Hg
Pressure
1020.92 hPa
Previous

2 hours ago

EGOP 220050Z AUTO 03003KT 9999 // BKN160/// 06/04 Q1021
Observed
May-22 @ 00:50 UTC
Wind
  • 030° at 3 KTS
Visibility
10,000+ meters
Flight Rules
VFR
Cloud Levels
  • Broken at 16,000' AGL
Temperature
C / 43°F
Dewpoint
C / 39°F
Humidity
87%
Altimeter
30.15" Hg
Pressure
1020.92 hPa
Previous

3 hours ago

EGOP 212350Z AUTO 03004KT 9999 // FEW180/// 06/04 Q1021
Observed
May-21 @ 23:50 UTC
Wind
  • 030° at 4 KTS
Visibility
10,000+ meters
Flight Rules
VFR
Cloud Levels
  • Few at 18,000' AGL
Temperature
C / 43°F
Dewpoint
C / 39°F
Humidity
87%
Altimeter
30.15" Hg
Pressure
1020.92 hPa